createdAt,value
2018-09-30T00:00:56.106Z,8.68
2018-09-30T00:03:24.342Z,8.70
2018-09-30T00:05:52.624Z,8.74
2018-09-30T00:08:21.157Z,8.77
2018-09-30T00:10:49.378Z,8.81
2018-09-30T00:13:17.965Z,8.83
2018-09-30T00:15:46.457Z,8.83
2018-09-30T00:18:14.927Z,8.74
2018-09-30T00:20:43.723Z,8.57
2018-09-30T00:23:12.646Z,8.44
2018-09-30T00:25:46.564Z,8.51
2018-09-30T00:28:14.794Z,8.53
2018-09-30T00:30:43.056Z,8.55
2018-09-30T00:33:11.319Z,8.50
2018-09-30T00:35:39.567Z,8.42
2018-09-30T00:38:08.105Z,8.60
2018-09-30T00:40:36.730Z,8.61
2018-09-30T00:43:05.367Z,8.59
2018-09-30T00:45:33.736Z,8.44
2018-09-30T00:48:02.449Z,8.33
2018-09-30T00:50:30.885Z,8.17
2018-09-30T00:52:59.609Z,8.25
2018-09-30T00:55:27.779Z,8.32
2018-09-30T00:57:56.364Z,8.18
2018-09-30T01:00:24.618Z,8.11
2018-09-30T01:02:52.845Z,8.19
2018-09-30T01:05:21.672Z,8.14
2018-09-30T01:07:49.777Z,8.09
2018-09-30T01:10:17.998Z,8.10
2018-09-30T01:12:46.817Z,8.09
2018-09-30T01:15:15.122Z,8.16
2018-09-30T01:17:43.663Z,8.13
2018-09-30T01:20:12.720Z,7.99
2018-09-30T01:22:40.996Z,8.04
2018-09-30T01:25:09.536Z,8.02
2018-09-30T01:27:37.993Z,7.78
2018-09-30T01:30:07.210Z,7.71
2018-09-30T01:32:35.649Z,7.85
2018-09-30T01:35:05.495Z,7.81
2018-09-30T01:37:34.556Z,7.82
2018-09-30T01:40:05.017Z,7.78
2018-09-30T01:42:33.739Z,7.81
2018-09-30T01:45:02.045Z,7.78
2018-09-30T01:47:30.907Z,7.67
2018-09-30T01:50:00.603Z,7.62
2018-09-30T01:52:48.493Z,7.46
2018-09-30T01:55:17.759Z,7.32
2018-09-30T01:57:46.021Z,7.22
2018-09-30T02:00:14.394Z,7.18
2018-09-30T02:02:44.458Z,7.15
2018-09-30T02:05:14.804Z,7.21
2018-09-30T02:07:43.632Z,7.37
2018-09-30T02:10:11.961Z,7.28
2018-09-30T02:12:40.411Z,7.24
2018-09-30T02:15:09.914Z,7.31
2018-09-30T02:17:39.952Z,7.18
2018-09-30T02:20:09.077Z,7.22
2018-09-30T02:22:37.491Z,7.19
2018-09-30T02:25:06.247Z,7.06
2018-09-30T02:27:35.273Z,7.12
2018-09-30T02:30:04.193Z,7.18
2018-09-30T02:32:32.545Z,7.18
2018-09-30T02:35:01.197Z,7.31
2018-09-30T02:37:29.667Z,7.31
2018-09-30T02:39:58.601Z,7.27
2018-09-30T02:42:27.607Z,7.12
2018-09-30T02:44:56.656Z,7.14
2018-09-30T02:47:25.027Z,7.10
2018-09-30T02:49:53.319Z,7.00
2018-09-30T02:52:21.648Z,6.90
2018-09-30T02:54:50.254Z,6.93
2018-09-30T02:57:18.825Z,7.11
2018-09-30T02:59:47.374Z,6.98
2018-09-30T03:02:15.725Z,7.05
2018-09-30T03:04:44.060Z,7.12
2018-09-30T03:07:18.008Z,7.04
2018-09-30T03:09:46.349Z,6.90
2018-09-30T03:12:15.737Z,6.95
2018-09-30T03:14:44.159Z,6.88
2018-09-30T03:17:14.571Z,6.87
2018-09-30T03:19:42.959Z,6.94
2018-09-30T03:22:11.243Z,7.05
2018-09-30T03:24:40.220Z,6.93
2018-09-30T03:27:08.522Z,6.69
2018-09-30T03:29:37.168Z,6.74
2018-09-30T03:32:05.448Z,6.78
2018-09-30T03:34:33.828Z,6.74
2018-09-30T03:37:02.128Z,6.70
2018-09-30T03:39:30.503Z,6.62
2018-09-30T03:41:58.679Z,6.64
2018-09-30T03:44:26.927Z,6.52
2018-09-30T03:46:56.025Z,6.47
2018-09-30T03:49:24.346Z,6.34
2018-09-30T03:51:52.624Z,6.26
2018-09-30T03:54:21.008Z,6.29
2018-09-30T03:56:50.266Z,6.45
2018-09-30T03:59:18.695Z,6.47
2018-09-30T04:01:46.931Z,6.50
2018-09-30T04:04:15.868Z,6.59
2018-09-30T04:06:44.204Z,6.62
2018-09-30T04:09:12.713Z,6.56
2018-09-30T04:11:40.948Z,6.48
2018-09-30T04:14:09.498Z,6.41
2018-09-30T04:16:37.740Z,6.46
2018-09-30T04:19:06.095Z,6.34
2018-09-30T04:21:35.262Z,6.34
2018-09-30T04:24:07.462Z,6.37
2018-09-30T04:26:36.587Z,6.38
2018-09-30T04:29:04.933Z,6.39
2018-09-30T04:31:33.608Z,6.40
2018-09-30T04:34:02.729Z,6.42
2018-09-30T04:36:32.001Z,6.41
2018-09-30T04:39:00.524Z,6.33
2018-09-30T04:41:29.269Z,6.20
2018-09-30T04:43:57.963Z,6.13
2018-09-30T04:46:26.204Z,6.16
2018-09-30T04:48:54.821Z,6.31
2018-09-30T04:51:23.360Z,6.31
2018-09-30T04:53:51.605Z,6.29
2018-09-30T04:56:19.908Z,6.12
2018-09-30T04:58:48.429Z,6.06
2018-09-30T05:01:16.708Z,6.19
2018-09-30T05:03:45.045Z,6.18
2018-09-30T05:06:13.329Z,6.19
2018-09-30T05:08:41.679Z,6.17
2018-09-30T05:11:10.527Z,6.10
2018-09-30T05:13:38.835Z,6.07
2018-09-30T05:16:07.732Z,6.11
2018-09-30T05:18:36.011Z,6.28
2018-09-30T05:21:04.844Z,6.24
2018-09-30T05:23:33.468Z,6.24
2018-09-30T05:26:02.194Z,6.35
2018-09-30T05:28:30.984Z,6.23
2018-09-30T05:31:00.488Z,6.12
2018-09-30T05:33:28.844Z,6.06
2018-09-30T05:35:57.726Z,6.03
2018-09-30T05:38:27.051Z,5.96
2018-09-30T05:40:55.638Z,5.92
2018-09-30T05:43:23.897Z,6.01
2018-09-30T05:45:52.508Z,6.09
2018-09-30T05:48:20.869Z,6.03
2018-09-30T05:50:49.168Z,6.05
2018-09-30T05:53:17.404Z,6.43
2018-09-30T05:55:46.436Z,6.96
2018-09-30T05:58:14.693Z,6.90
2018-09-30T06:00:42.952Z,6.62
2018-09-30T06:03:11.443Z,6.48
2018-09-30T06:05:39.757Z,6.47
2018-09-30T06:08:08.044Z,6.39
2018-09-30T06:10:36.394Z,6.48
2018-09-30T06:13:04.928Z,6.69
2018-09-30T06:15:34.104Z,6.91
2018-09-30T06:18:03.200Z,7.09
2018-09-30T06:20:31.829Z,7.32
2018-09-30T06:23:07.152Z,7.40
2018-09-30T06:25:36.453Z,7.20
2018-09-30T06:28:05.195Z,7.30
2018-09-30T06:30:33.845Z,7.36
2018-09-30T06:33:02.941Z,7.59
2018-09-30T06:35:31.642Z,7.98
2018-09-30T06:37:59.972Z,8.09
2018-09-30T06:40:28.700Z,8.41
2018-09-30T06:42:57.623Z,8.48
2018-09-30T06:45:26.200Z,8.57
2018-09-30T06:47:54.511Z,8.83
2018-09-30T06:50:23.334Z,8.92
2018-09-30T06:52:52.061Z,9.04
2018-09-30T06:55:21.044Z,9.05
2018-09-30T06:57:49.757Z,9.24
2018-09-30T07:00:18.180Z,9.48
2018-09-30T07:02:46.989Z,9.65
2018-09-30T07:05:15.421Z,9.65
2018-09-30T07:07:44.031Z,9.86
2018-09-30T07:10:13.065Z,9.95
2018-09-30T07:12:41.441Z,9.85
2018-09-30T07:15:10.267Z,10.00
2018-09-30T07:17:39.803Z,10.11
2018-09-30T07:20:08.382Z,10.18
2018-09-30T07:22:36.772Z,10.17
2018-09-30T07:25:05.112Z,10.23
2018-09-30T07:27:33.527Z,10.43
2018-09-30T07:30:03.665Z,10.64
2018-09-30T07:32:32.248Z,10.75
2018-09-30T07:35:00.642Z,10.83
2018-09-30T07:37:29.026Z,10.88
2018-09-30T07:39:57.567Z,11.11
2018-09-30T07:42:25.813Z,10.72
2018-09-30T07:44:54.180Z,10.49
2018-09-30T07:47:22.519Z,10.98
2018-09-30T07:49:51.592Z,11.19
2018-09-30T07:52:20.014Z,11.24
2018-09-30T07:54:50.994Z,11.43
2018-09-30T07:57:19.368Z,11.63
2018-09-30T07:59:47.727Z,11.83
2018-09-30T08:02:16.333Z,11.96
2018-09-30T08:04:44.712Z,11.94
2018-09-30T08:07:13.117Z,12.12
2018-09-30T08:09:41.593Z,12.51
2018-09-30T08:12:10.301Z,12.67
2018-09-30T08:14:38.723Z,12.64
2018-09-30T08:17:07.258Z,12.61
2018-09-30T08:19:36.244Z,12.68
2018-09-30T08:22:04.770Z,12.93
2018-09-30T08:24:34.239Z,13.16
2018-09-30T08:27:02.475Z,13.04
2018-09-30T08:29:31.243Z,12.93
2018-09-30T08:32:06.555Z,12.89
2018-09-30T08:34:34.925Z,13.11
2018-09-30T08:37:03.860Z,13.11
2018-09-30T08:39:33.541Z,13.35
2018-09-30T08:42:02.114Z,13.54
2018-09-30T08:44:33.120Z,13.54
2018-09-30T08:47:01.751Z,13.89
2018-09-30T08:49:30.168Z,13.78
2018-09-30T08:51:58.480Z,13.88
2018-09-30T08:54:27.491Z,13.96
2018-09-30T08:56:56.137Z,14.20
2018-09-30T08:59:24.547Z,14.17
2018-09-30T09:01:54.609Z,14.39
2018-09-30T09:04:25.320Z,14.34
2018-09-30T09:06:53.960Z,14.22
2018-09-30T09:09:22.268Z,14.47
2018-09-30T09:11:51.325Z,14.53
2018-09-30T09:14:19.779Z,14.57
2018-09-30T09:16:48.933Z,14.63
2018-09-30T09:19:18.761Z,15.07
2018-09-30T09:21:47.586Z,15.16
2018-09-30T09:24:19.428Z,15.37
2018-09-30T09:26:50.197Z,15.37
2018-09-30T09:29:18.960Z,15.39
2018-09-30T09:31:47.939Z,15.29
2018-09-30T09:34:16.622Z,15.50
2018-09-30T09:36:44.920Z,15.71
2018-09-30T09:39:14.034Z,16.14
2018-09-30T09:41:45.571Z,16.31
2018-09-30T09:44:15.387Z,16.59
2018-09-30T09:46:44.335Z,16.56
2018-09-30T09:49:14.489Z,16.78
2018-09-30T09:51:42.814Z,16.74
2018-09-30T09:54:11.244Z,16.80
2018-09-30T09:56:40.533Z,17.14
2018-09-30T09:59:09.355Z,17.48
2018-09-30T10:01:39.169Z,17.72
2018-09-30T10:04:08.371Z,17.20
2018-09-30T10:06:36.644Z,17.51
2018-09-30T10:09:06.280Z,17.67
2018-09-30T10:11:34.535Z,17.74
2018-09-30T10:14:03.179Z,18.16
2018-09-30T10:16:32.606Z,18.34
2018-09-30T10:19:00.832Z,18.27
2018-09-30T10:21:29.406Z,18.43
2018-09-30T10:23:57.795Z,18.74
2018-09-30T10:26:25.989Z,18.61
2018-09-30T10:28:54.358Z,18.98
2018-09-30T10:31:22.685Z,18.77
2018-09-30T10:33:50.950Z,18.50
2018-09-30T10:36:19.101Z,18.73
2018-09-30T10:38:47.349Z,18.69
2018-09-30T10:41:15.632Z,19.29
2018-09-30T10:43:44.265Z,19.82
2018-09-30T10:46:13.023Z,20.24
2018-09-30T10:48:41.529Z,20.20
2018-09-30T10:51:10.093Z,20.03
2018-09-30T10:53:38.494Z,19.17
2018-09-30T10:56:06.787Z,19.77
2018-09-30T10:58:35.408Z,20.25
2018-09-30T11:01:03.706Z,20.25
2018-09-30T11:03:33.370Z,20.72
2018-09-30T11:06:02.817Z,20.80
2018-09-30T11:08:31.238Z,20.53
2018-09-30T11:10:59.713Z,20.65
2018-09-30T11:13:28.077Z,20.66
2018-09-30T11:15:56.784Z,20.09
2018-09-30T11:18:26.403Z,20.50
2018-09-30T11:20:55.115Z,20.19
2018-09-30T11:23:24.168Z,20.00
2018-09-30T11:25:52.607Z,20.55
2018-09-30T11:28:21.494Z,20.81
2018-09-30T11:30:49.939Z,20.88
2018-09-30T11:33:18.858Z,21.24
2018-09-30T11:35:47.784Z,21.56
2018-09-30T11:38:16.235Z,21.93
2018-09-30T11:40:44.670Z,21.61
2018-09-30T11:43:13.231Z,22.03
2018-09-30T11:45:42.704Z,21.28
2018-09-30T11:48:10.950Z,21.46
2018-09-30T11:50:39.696Z,21.18
2018-09-30T11:53:08.180Z,20.96
2018-09-30T11:55:36.802Z,21.19
2018-09-30T11:58:05.739Z,21.33
2018-09-30T12:00:34.822Z,21.37
2018-09-30T12:03:03.434Z,21.29
2018-09-30T12:05:31.852Z,21.32
2018-09-30T12:08:00.524Z,21.84
2018-09-30T12:10:28.850Z,21.29
2018-09-30T12:12:57.097Z,21.40
2018-09-30T12:15:25.637Z,21.98
2018-09-30T12:17:53.888Z,21.70
2018-09-30T12:20:22.285Z,21.53
2018-09-30T12:22:52.379Z,21.93
2018-09-30T12:25:20.658Z,22.29
2018-09-30T12:27:49.453Z,22.10
2018-09-30T12:30:18.469Z,21.80
2018-09-30T12:35:28.821Z,22.00
2018-09-30T12:37:57.689Z,22.25
2018-09-30T12:40:26.177Z,22.57
2018-09-30T12:42:54.829Z,22.99
2018-09-30T12:45:24.837Z,22.76
2018-09-30T12:47:54.908Z,22.88
2018-09-30T12:50:23.667Z,23.25
2018-09-30T12:52:54.081Z,23.52
2018-09-30T12:55:22.668Z,23.75
2018-09-30T12:57:51.623Z,24.04
2018-09-30T13:00:19.883Z,24.35
2018-09-30T13:02:48.267Z,23.96
2018-09-30T13:05:16.775Z,25.21
2018-09-30T13:07:44.993Z,25.77
2018-09-30T13:10:13.454Z,26.76
2018-09-30T13:12:41.705Z,28.28
2018-09-30T13:15:10.524Z,29.66
2018-09-30T13:17:38.900Z,30.21
2018-09-30T13:20:07.943Z,30.19
2018-09-30T13:22:36.342Z,30.93
2018-09-30T13:25:04.874Z,30.37
2018-09-30T13:27:33.257Z,32.13
2018-09-30T13:30:01.511Z,31.16
2018-09-30T13:32:30.152Z,33.30
2018-09-30T13:34:58.425Z,34.18
2018-09-30T13:37:26.677Z,33.56
2018-09-30T13:39:55.044Z,33.06
2018-09-30T13:42:23.294Z,33.47
2018-09-30T13:44:51.633Z,35.36
2018-09-30T13:47:19.845Z,35.84
2018-09-30T13:49:48.086Z,35.76
2018-09-30T13:52:16.298Z,36.36
2018-09-30T13:54:44.537Z,35.77
2018-09-30T13:57:12.834Z,37.58
2018-09-30T13:59:41.121Z,36.58
2018-09-30T14:02:10.585Z,37.15
2018-09-30T14:04:39.070Z,33.04
2018-09-30T14:07:08.031Z,35.04
2018-09-30T14:09:36.323Z,34.68
2018-09-30T14:12:05.248Z,35.79
2018-09-30T14:14:33.480Z,35.87
2018-09-30T14:17:08.738Z,35.83
2018-09-30T14:19:37.016Z,34.74
2018-09-30T14:22:06.649Z,34.57
2018-09-30T14:24:35.283Z,36.06
2018-09-30T14:27:04.029Z,34.73
2018-09-30T14:29:32.337Z,36.07
2018-09-30T14:32:01.055Z,34.10
2018-09-30T14:34:29.537Z,33.40
2018-09-30T14:36:57.946Z,35.80
2018-09-30T14:39:26.497Z,35.55
2018-09-30T14:41:55.728Z,36.77
2018-09-30T14:44:24.066Z,33.27
2018-09-30T14:46:52.935Z,34.52
2018-09-30T14:49:21.593Z,36.14
2018-09-30T14:51:49.964Z,37.99
2018-09-30T14:54:18.915Z,35.23
2018-09-30T14:56:47.280Z,34.91
2018-09-30T14:59:16.605Z,37.03
2018-09-30T15:01:45.572Z,38.25
2018-09-30T15:04:14.402Z,38.17
2018-09-30T15:06:42.915Z,37.82
2018-09-30T15:09:11.912Z,37.80
2018-09-30T15:11:40.593Z,37.67
2018-09-30T15:14:09.070Z,37.02
2018-09-30T15:16:37.993Z,36.34
2018-09-30T15:19:07.807Z,34.32
2018-09-30T15:21:36.777Z,35.74
2018-09-30T15:24:06.058Z,35.20
2018-09-30T15:26:35.264Z,35.22
2018-09-30T15:29:04.261Z,34.47
2018-09-30T15:31:33.066Z,33.73
2018-09-30T15:34:01.339Z,34.92
2018-09-30T15:36:29.568Z,34.81
2018-09-30T15:38:58.769Z,34.80
2018-09-30T15:41:27.491Z,34.80
2018-09-30T15:43:56.169Z,34.31
2018-09-30T15:46:25.105Z,33.38
2018-09-30T15:48:53.396Z,30.63
2018-09-30T15:51:22.026Z,32.03
2018-09-30T15:53:50.221Z,31.17
2018-09-30T15:56:18.589Z,31.70
2018-09-30T15:58:46.969Z,32.63
2018-09-30T16:01:15.631Z,29.70
2018-09-30T16:03:45.566Z,28.20
2018-09-30T16:06:14.454Z,26.08
2018-09-30T16:08:43.532Z,25.26
2018-09-30T16:11:12.610Z,24.56
2018-09-30T16:13:40.960Z,24.07
2018-09-30T16:16:09.744Z,23.88
2018-09-30T16:18:38.229Z,23.60
2018-09-30T16:21:06.560Z,23.19
2018-09-30T16:23:35.085Z,22.67
2018-09-30T16:26:03.672Z,22.57
2018-09-30T16:28:31.895Z,22.50
2018-09-30T16:31:00.324Z,22.20
2018-09-30T16:33:28.749Z,22.11
2018-09-30T16:35:57.513Z,21.70
2018-09-30T16:38:26.255Z,20.93
2018-09-30T16:40:54.595Z,20.64
2018-09-30T16:43:23.618Z,20.74
2018-09-30T16:45:52.665Z,20.58
2018-09-30T16:48:21.031Z,20.61
2018-09-30T16:50:49.314Z,19.92
2018-09-30T16:53:17.566Z,19.44
2018-09-30T16:55:45.862Z,19.39
2018-09-30T16:58:14.605Z,19.25
2018-09-30T17:00:43.921Z,19.17
2018-09-30T17:03:12.929Z,19.03
2018-09-30T17:05:41.362Z,18.86
2018-09-30T17:08:09.730Z,19.03
2018-09-30T17:10:38.087Z,18.76
2018-09-30T17:13:06.844Z,18.63
2018-09-30T17:15:35.531Z,18.36
2018-09-30T17:18:03.885Z,18.38
2018-09-30T17:20:33.121Z,18.22
2018-09-30T17:23:01.557Z,18.35
2018-09-30T17:25:29.855Z,18.25
2018-09-30T17:27:59.107Z,17.93
2018-09-30T17:30:27.694Z,17.88
2018-09-30T17:32:56.240Z,17.69
2018-09-30T17:35:25.031Z,17.66
2018-09-30T17:37:53.343Z,17.64
2018-09-30T17:40:21.725Z,17.76
2018-09-30T17:42:50.290Z,17.62
2018-09-30T17:45:18.585Z,17.69
2018-09-30T17:47:46.961Z,17.40
2018-09-30T17:50:15.330Z,17.38
2018-09-30T17:52:43.954Z,17.44
2018-09-30T17:55:12.430Z,17.29
2018-09-30T17:57:40.745Z,17.03
2018-09-30T18:00:09.196Z,17.08
2018-09-30T18:02:38.358Z,17.09
2018-09-30T18:05:07.603Z,17.13
2018-09-30T18:07:36.677Z,17.04
2018-09-30T18:10:06.229Z,16.78
2018-09-30T18:12:34.460Z,16.66
2018-09-30T18:15:03.303Z,16.58
2018-09-30T18:17:31.940Z,16.75
2018-09-30T18:20:00.296Z,16.59
2018-09-30T18:22:28.648Z,16.41
2018-09-30T18:24:57.384Z,16.52
2018-09-30T18:27:26.586Z,16.64
2018-09-30T18:29:54.936Z,16.54
2018-09-30T18:32:23.269Z,16.52
2018-09-30T18:34:53.297Z,16.41
2018-09-30T18:37:21.615Z,16.25
2018-09-30T18:39:49.927Z,16.36
2018-09-30T18:42:18.216Z,16.27
2018-09-30T18:44:46.544Z,16.21
2018-09-30T18:47:15.276Z,16.24
2018-09-30T18:49:43.849Z,16.15
2018-09-30T18:52:12.578Z,16.11
2018-09-30T18:54:41.471Z,16.01
2018-09-30T18:57:09.871Z,15.89
2018-09-30T18:59:38.612Z,15.79
2018-09-30T19:02:07.944Z,15.97
2018-09-30T19:04:36.285Z,15.86
2018-09-30T19:07:04.639Z,15.80
2018-09-30T19:09:33.239Z,15.68
2018-09-30T19:12:01.565Z,15.67
2018-09-30T19:14:29.853Z,15.76
2018-09-30T19:16:58.381Z,15.68
2018-09-30T19:19:27.063Z,15.86
2018-09-30T19:21:55.445Z,15.89
2018-09-30T19:24:23.838Z,15.80
2018-09-30T19:26:52.518Z,15.75
2018-09-30T19:29:21.196Z,15.89
2018-09-30T19:31:50.586Z,15.82
2018-09-30T19:34:19.438Z,15.70
2018-09-30T19:39:24.249Z,15.64
2018-09-30T19:41:52.661Z,15.53
2018-09-30T19:44:21.670Z,15.48
2018-09-30T19:46:50.262Z,15.45
2018-09-30T19:49:19.564Z,15.30
2018-09-30T19:51:47.793Z,15.25
2018-09-30T19:54:16.760Z,15.17
2018-09-30T19:56:45.213Z,15.17
2018-09-30T19:59:13.554Z,15.20
2018-09-30T20:01:42.233Z,15.17
2018-09-30T20:04:13.762Z,15.08
2018-09-30T20:06:42.136Z,14.93
2018-09-30T20:09:10.480Z,14.85
2018-09-30T20:11:39.315Z,14.65
2018-09-30T20:14:07.653Z,14.49
2018-09-30T20:16:36.816Z,14.60
2018-09-30T20:19:06.047Z,14.55
2018-09-30T20:21:34.573Z,14.62
2018-09-30T20:24:02.778Z,14.34
2018-09-30T20:26:31.870Z,14.26
2018-09-30T20:29:00.232Z,14.27
2018-09-30T20:31:28.512Z,14.32
2018-09-30T20:33:57.099Z,14.27
2018-09-30T20:36:25.464Z,14.35
2018-09-30T20:38:54.040Z,14.24
2018-09-30T20:41:22.373Z,14.34
2018-09-30T20:43:50.561Z,14.36
2018-09-30T20:46:19.664Z,14.26
2018-09-30T20:48:48.951Z,14.19
2018-09-30T20:51:17.544Z,13.94
2018-09-30T20:53:46.025Z,13.89
2018-09-30T20:56:14.580Z,13.96
2018-09-30T20:58:43.293Z,14.00
2018-09-30T21:01:11.632Z,13.94
2018-09-30T21:03:40.544Z,13.97
2018-09-30T21:06:33.635Z,13.88
2018-09-30T21:09:01.967Z,13.88
2018-09-30T21:11:30.827Z,13.79
2018-09-30T21:13:59.000Z,13.77
2018-09-30T21:16:28.125Z,13.74
2018-09-30T21:18:57.437Z,13.64
2018-09-30T21:21:26.065Z,13.59
2018-09-30T21:23:54.732Z,13.59
2018-09-30T21:26:23.684Z,13.49
2018-09-30T21:28:52.229Z,13.49
2018-09-30T21:31:21.285Z,13.61
2018-09-30T21:33:49.647Z,13.46
2018-09-30T21:36:18.310Z,13.46
2018-09-30T21:38:47.142Z,13.37
2018-09-30T21:41:16.086Z,13.43
2018-09-30T21:43:44.929Z,13.33
2018-09-30T21:46:13.237Z,13.37
2018-09-30T21:48:41.645Z,13.23
2018-09-30T21:51:10.221Z,13.17
2018-09-30T21:53:39.095Z,13.22
2018-09-30T21:56:07.526Z,13.17
2018-09-30T21:58:36.528Z,13.09
2018-09-30T22:01:05.599Z,13.05
2018-09-30T22:03:33.836Z,12.91
2018-09-30T22:06:02.549Z,12.87
2018-09-30T22:08:32.033Z,12.88
2018-09-30T22:11:01.193Z,12.97
2018-09-30T22:13:30.208Z,12.97
2018-09-30T22:15:58.630Z,12.81
2018-09-30T22:18:27.393Z,12.74
2018-09-30T22:20:57.206Z,12.76
2018-09-30T22:23:26.220Z,12.82
2018-09-30T22:25:55.108Z,12.71
2018-09-30T22:28:23.979Z,12.67
2018-09-30T22:30:52.220Z,12.75
2018-09-30T22:33:21.021Z,12.77
2018-09-30T22:35:49.707Z,12.56
2018-09-30T22:38:19.774Z,12.44
2018-09-30T22:40:48.366Z,12.45
2018-09-30T22:43:16.977Z,12.55
2018-09-30T22:45:46.184Z,12.57
2018-09-30T22:48:15.186Z,12.67
2018-09-30T22:50:44.472Z,12.76
2018-09-30T22:53:12.908Z,12.72
2018-09-30T22:55:41.417Z,12.64
2018-09-30T22:58:10.114Z,12.48
2018-09-30T23:00:38.380Z,12.43
2018-09-30T23:03:07.007Z,12.44
2018-09-30T23:05:35.320Z,12.59
2018-09-30T23:08:03.618Z,12.60
2018-09-30T23:10:32.601Z,12.60
2018-09-30T23:13:01.139Z,12.64
2018-09-30T23:15:30.105Z,12.67
2018-09-30T23:17:58.479Z,12.65
2018-09-30T23:20:27.489Z,12.68
2018-09-30T23:22:56.092Z,12.75
2018-09-30T23:25:24.935Z,12.72
2018-09-30T23:27:53.472Z,12.51
2018-09-30T23:30:22.115Z,12.55
2018-09-30T23:32:50.469Z,12.46
2018-09-30T23:35:18.745Z,12.48
2018-09-30T23:37:47.368Z,12.64
2018-09-30T23:40:16.309Z,12.77
2018-09-30T23:42:44.536Z,12.86
2018-09-30T23:45:12.897Z,12.91
2018-09-30T23:47:41.235Z,12.93
2018-09-30T23:50:09.792Z,12.94
2018-09-30T23:52:38.409Z,13.09
2018-09-30T23:55:06.657Z,12.90
2018-09-30T23:57:35.254Z,12.76
